createdAt,value
2022-08-23T00:02:27.123Z,14.34
2022-08-23T00:05:07.976Z,14.45
2022-08-23T00:07:42.222Z,14.54
2022-08-23T00:10:11.382Z,14.52
2022-08-23T00:12:38.894Z,14.60
2022-08-23T00:15:07.557Z,14.58
2022-08-23T00:17:36.623Z,14.49
2022-08-23T00:20:08.465Z,14.57
2022-08-23T00:22:36.109Z,14.49
2022-08-23T00:25:04.107Z,14.68
2022-08-23T00:27:30.939Z,14.57
2022-08-23T00:29:58.199Z,14.44
2022-08-23T00:32:28.249Z,14.46
2022-08-23T00:34:56.163Z,14.65
2022-08-23T00:37:23.892Z,14.72
2022-08-23T00:39:50.958Z,14.68
2022-08-23T00:43:01.822Z,14.67
2022-08-23T00:45:58.033Z,14.48
2022-08-23T00:48:25.643Z,14.69
2022-08-23T00:51:05.712Z,14.41
2022-08-23T00:53:38.276Z,14.65
2022-08-23T00:56:09.187Z,14.49
2022-08-23T00:58:36.574Z,14.70
2022-08-23T01:01:06.488Z,14.51
2022-08-23T01:03:43.964Z,14.71
2022-08-23T01:06:23.868Z,14.48
2022-08-23T01:09:00.333Z,14.18
2022-08-23T01:11:27.132Z,14.57
2022-08-23T01:14:01.972Z,14.58
2022-08-23T01:16:36.871Z,14.42
2022-08-23T01:19:08.186Z,14.26
2022-08-23T01:21:43.943Z,14.58
2022-08-23T01:24:19.093Z,14.09
2022-08-23T01:27:00.829Z,14.32
2022-08-23T01:29:27.685Z,14.32
2022-08-23T01:31:56.130Z,14.41
2022-08-23T01:34:27.348Z,14.40
2022-08-23T01:36:55.872Z,14.42
2022-08-23T01:39:23.687Z,14.53
2022-08-23T01:41:51.499Z,14.37
2022-08-23T01:44:19.132Z,14.54
2022-08-23T01:46:47.360Z,14.48
2022-08-23T01:49:14.425Z,14.35
2022-08-23T01:51:42.671Z,14.60
2022-08-23T01:54:09.947Z,14.67
2022-08-23T01:56:38.733Z,14.43
2022-08-23T01:59:08.569Z,14.50
2022-08-23T02:01:36.073Z,14.57
2022-08-23T02:04:04.768Z,14.27
2022-08-23T02:06:33.449Z,14.45
2022-08-23T02:09:03.879Z,14.53
2022-08-23T02:11:39.342Z,14.53
2022-08-23T02:14:15.661Z,14.54
2022-08-23T02:16:59.991Z,14.46
2022-08-23T02:19:33.894Z,14.51
2022-08-23T02:22:01.120Z,14.38
2022-08-23T02:24:28.388Z,14.41
2022-08-23T02:26:57.904Z,14.14
2022-08-23T02:29:26.312Z,14.25
2022-08-23T02:31:54.248Z,14.26
2022-08-23T02:34:38.163Z,14.42
2022-08-23T02:37:06.840Z,14.38
2022-08-23T02:39:34.849Z,14.10
2022-08-23T02:42:01.979Z,14.21
2022-08-23T02:44:29.224Z,14.44
2022-08-23T02:46:56.215Z,14.36
2022-08-23T02:49:23.307Z,14.18
2022-08-23T02:51:50.268Z,14.48
2022-08-23T02:54:17.195Z,14.32
2022-08-23T02:56:44.266Z,14.31
2022-08-23T02:59:11.182Z,14.57
2022-08-23T03:01:39.701Z,14.49
2022-08-23T03:04:09.863Z,14.59
2022-08-23T03:06:38.098Z,14.49
2022-08-23T03:09:07.492Z,14.51
2022-08-23T03:11:34.798Z,14.54
2022-08-23T03:14:02.291Z,14.55
2022-08-23T03:16:29.591Z,14.53
2022-08-23T03:18:56.666Z,14.47
2022-08-23T03:21:23.717Z,14.39
2022-08-23T03:23:51.695Z,14.13
2022-08-23T03:26:18.961Z,14.48
2022-08-23T03:28:47.448Z,14.48
2022-08-23T03:31:15.761Z,14.24
2022-08-23T03:33:43.008Z,14.31
2022-08-23T03:36:12.399Z,14.56
2022-08-23T03:38:41.099Z,14.42
2022-08-23T03:41:08.906Z,14.51
2022-08-23T03:43:36.365Z,14.57
2022-08-23T03:46:03.643Z,14.38
2022-08-23T03:48:30.610Z,14.43
2022-08-23T03:50:57.601Z,14.58
2022-08-23T03:53:24.578Z,14.49
2022-08-23T03:55:54.831Z,14.59
2022-08-23T03:58:22.003Z,14.52
2022-08-23T04:00:49.620Z,14.55
2022-08-23T04:03:16.689Z,14.19
2022-08-23T04:05:44.059Z,14.08
2022-08-23T04:08:11.934Z,14.56
2022-08-23T04:10:39.535Z,14.58
2022-08-23T04:13:09.412Z,14.33
2022-08-23T04:15:36.259Z,14.51
2022-08-23T04:18:03.580Z,14.35
2022-08-23T04:20:30.468Z,14.40
2022-08-23T04:22:57.555Z,14.36
2022-08-23T04:25:34.577Z,14.28
2022-08-23T04:28:03.139Z,14.57
2022-08-23T04:30:30.781Z,14.22
2022-08-23T04:32:58.110Z,14.42
2022-08-23T04:35:26.374Z,14.20
2022-08-23T04:37:54.086Z,14.45
2022-08-23T04:41:05.570Z,14.15
2022-08-23T04:44:49.521Z,13.97
2022-08-23T04:47:29.483Z,14.39
2022-08-23T04:50:22.346Z,14.27
2022-08-23T04:53:58.617Z,14.20
2022-08-23T04:56:08.346Z,14.06
2022-08-23T04:59:12.976Z,14.07
2022-08-23T05:05:46.082Z,13.98
2022-08-23T05:08:38.713Z,14.17
2022-08-23T05:11:17.128Z,14.20
2022-08-23T05:13:44.890Z,14.24
2022-08-23T05:19:30.231Z,14.31
2022-08-23T05:22:00.654Z,14.30
2022-08-23T05:37:05.560Z,13.99
2022-08-23T05:39:36.375Z,14.37
2022-08-23T05:42:09.834Z,14.13
2022-08-23T05:44:38.321Z,14.31
2022-08-23T05:47:12.672Z,14.20
2022-08-23T05:49:48.974Z,14.00
2022-08-23T05:52:22.242Z,14.32
2022-08-23T05:54:59.802Z,14.24
2022-08-23T05:57:36.644Z,14.00
2022-08-23T06:00:19.115Z,14.11
2022-08-23T06:02:47.852Z,14.04
2022-08-23T06:05:27.456Z,14.15
2022-08-23T06:08:03.493Z,14.06
2022-08-23T06:10:50.803Z,14.05
2022-08-23T06:13:48.540Z,14.21
2022-08-23T06:16:15.065Z,14.57
2022-08-23T06:18:58.504Z,14.08
2022-08-23T06:21:26.653Z,14.58
2022-08-23T06:23:53.475Z,14.29
2022-08-23T06:26:26.073Z,14.58
2022-08-23T06:28:55.756Z,14.54
2022-08-23T06:31:44.001Z,14.53
2022-08-23T06:34:13.432Z,14.42
2022-08-23T06:36:40.391Z,14.62
2022-08-23T06:39:10.155Z,14.60
2022-08-23T06:41:36.853Z,14.65
2022-08-23T06:44:04.226Z,14.68
2022-08-23T06:46:31.289Z,14.61
2022-08-23T06:48:59.674Z,14.57
2022-08-23T06:51:26.482Z,14.68
2022-08-23T06:53:55.306Z,14.70
2022-08-23T06:56:27.125Z,14.69
2022-08-23T06:58:54.704Z,14.61
2022-08-23T07:01:46.388Z,14.59
2022-08-23T07:04:16.819Z,14.63
2022-08-23T07:06:43.869Z,14.72
2022-08-23T07:09:11.031Z,14.66
2022-08-23T07:11:39.745Z,14.70
2022-08-23T07:14:11.047Z,14.71
2022-08-23T07:16:44.702Z,14.73
2022-08-23T07:19:12.585Z,14.71
2022-08-23T07:21:39.636Z,14.31
2022-08-23T07:24:06.849Z,14.71
2022-08-23T07:26:33.680Z,14.68
2022-08-23T07:29:00.392Z,14.54
2022-08-23T07:31:32.751Z,14.60
2022-08-23T07:34:05.504Z,14.40
2022-08-23T07:36:33.869Z,14.56
2022-08-23T07:39:01.439Z,14.74
2022-08-23T07:41:32.763Z,14.86
2022-08-23T07:44:04.646Z,14.92
2022-08-23T07:46:33.258Z,14.91
2022-08-23T07:49:01.697Z,14.92
2022-08-23T07:51:30.949Z,14.81
2022-08-23T07:53:58.944Z,14.85
2022-08-23T07:56:25.656Z,14.91
2022-08-23T07:58:52.969Z,14.97
2022-08-23T08:01:25.151Z,14.89
2022-08-23T08:03:54.200Z,14.78
2022-08-23T08:06:25.507Z,14.99
2022-08-23T08:08:52.992Z,15.04
2022-08-23T08:11:23.250Z,14.98
2022-08-23T08:13:51.886Z,15.00
2022-08-23T08:16:28.812Z,15.06
2022-08-23T08:18:59.603Z,14.98
2022-08-23T08:21:27.728Z,15.02
2022-08-23T08:23:55.603Z,14.96
2022-08-23T08:26:23.157Z,14.89
2022-08-23T08:28:50.002Z,14.98
2022-08-23T08:31:16.984Z,15.06
2022-08-23T08:33:43.933Z,15.04
2022-08-23T08:36:37.669Z,15.05
2022-08-23T08:39:11.086Z,15.08
2022-08-23T08:41:48.680Z,15.17
2022-08-23T08:44:32.108Z,15.18
2022-08-23T08:46:59.435Z,15.05
2022-08-23T08:49:47.781Z,15.20
2022-08-23T08:52:36.791Z,15.19
2022-08-23T08:55:14.048Z,15.13
2022-08-23T08:57:45.178Z,15.11
2022-08-23T09:00:17.724Z,15.22
2022-08-23T09:02:45.482Z,15.25
2022-08-23T09:05:19.004Z,15.26
2022-08-23T09:08:18.728Z,15.36
2022-08-23T09:10:50.137Z,15.42
2022-08-23T09:13:45.469Z,15.41
2022-08-23T09:16:37.454Z,15.44
2022-08-23T09:19:04.858Z,15.43
2022-08-23T09:21:43.646Z,15.37
2022-08-23T09:24:10.402Z,15.45
2022-08-23T09:26:37.649Z,15.46
2022-08-23T09:29:25.505Z,15.54
2022-08-23T09:31:58.433Z,15.50
2022-08-23T09:34:37.182Z,15.42
2022-08-23T09:37:23.101Z,15.52
2022-08-23T09:40:14.345Z,15.29
2022-08-23T09:42:41.887Z,15.29
2022-08-23T09:45:49.835Z,15.40
2022-08-23T09:48:45.157Z,15.29
2022-08-23T09:51:21.736Z,15.32
2022-08-23T09:54:03.812Z,15.40
2022-08-23T09:56:34.169Z,15.41
2022-08-23T09:59:01.995Z,15.26
2022-08-23T10:01:39.266Z,15.29
2022-08-23T10:04:08.973Z,15.40
2022-08-23T10:06:36.734Z,15.27
2022-08-23T10:09:06.109Z,15.40
2022-08-23T10:11:41.878Z,15.32
2022-08-23T10:14:09.957Z,15.50
2022-08-23T10:16:55.778Z,15.58
2022-08-23T10:19:53.256Z,15.74
2022-08-23T10:22:28.771Z,15.73
2022-08-23T10:25:06.028Z,15.80
2022-08-23T10:28:13.157Z,15.96
2022-08-23T10:31:01.739Z,15.96
2022-08-23T10:33:39.922Z,15.98
2022-08-23T10:36:10.155Z,15.89
2022-08-23T10:39:00.772Z,15.86
2022-08-23T10:42:08.105Z,15.92
2022-08-23T10:44:38.303Z,15.88
2022-08-23T10:47:14.974Z,15.86
2022-08-23T10:49:43.019Z,15.73
2022-08-23T10:52:15.453Z,15.75
2022-08-23T10:55:16.749Z,15.55
2022-08-23T10:57:46.766Z,15.78
2022-08-23T11:00:19.409Z,15.75
2022-08-23T11:03:42.107Z,15.74
2022-08-23T11:06:36.305Z,15.79
2022-08-23T11:09:18.303Z,15.81
2022-08-23T11:12:13.046Z,15.81
2022-08-23T11:14:46.162Z,15.79
2022-08-23T11:17:28.369Z,15.73
2022-08-23T11:20:08.832Z,15.92
2022-08-23T11:23:07.668Z,15.87
2022-08-23T11:25:34.303Z,15.87
2022-08-23T11:28:25.625Z,15.87
2022-08-23T11:30:57.589Z,15.83
2022-08-23T11:33:34.740Z,15.83
2022-08-23T11:36:10.497Z,15.76
2022-08-23T11:38:49.636Z,15.71
2022-08-23T11:41:19.123Z,15.70
2022-08-23T11:44:10.777Z,15.64
2022-08-23T11:46:57.804Z,15.59
2022-08-23T11:49:30.517Z,15.70
2022-08-23T11:52:13.297Z,15.76
2022-08-23T11:55:08.236Z,15.68
2022-08-23T11:57:44.223Z,15.74
2022-08-23T12:00:48.613Z,15.79
2022-08-23T12:03:33.917Z,15.81
2022-08-23T12:06:12.819Z,15.73
2022-08-23T12:08:55.852Z,15.82
2022-08-23T12:11:26.035Z,15.88
2022-08-23T12:14:30.960Z,15.89
2022-08-23T12:17:04.098Z,16.05
2022-08-23T12:19:57.817Z,16.05
2022-08-23T12:22:30.254Z,15.91
2022-08-23T12:25:03.168Z,16.05
2022-08-23T12:27:44.925Z,16.12
2022-08-23T12:30:20.474Z,16.00
2022-08-23T12:33:06.303Z,16.02
2022-08-23T12:35:50.534Z,16.04
2022-08-23T12:38:35.721Z,16.03
2022-08-23T12:41:17.905Z,15.98
2022-08-23T12:44:06.282Z,15.95
2022-08-23T12:46:39.033Z,16.07
2022-08-23T12:49:13.544Z,16.07
2022-08-23T12:51:50.358Z,15.96
2022-08-23T12:54:23.085Z,16.20
2022-08-23T12:56:54.028Z,16.14
2022-08-23T12:59:45.224Z,16.22
2022-08-23T13:02:20.509Z,16.30
2022-08-23T13:04:47.298Z,16.19
2022-08-23T13:07:19.810Z,16.20
2022-08-23T13:09:53.254Z,16.30
2022-08-23T13:12:20.949Z,16.11
2022-08-23T13:14:50.614Z,16.24
2022-08-23T13:17:20.211Z,16.33
2022-08-23T13:19:50.938Z,16.13
2022-08-23T13:22:26.762Z,16.31
2022-08-23T13:25:29.048Z,16.45
2022-08-23T13:27:59.976Z,16.31
2022-08-23T13:30:37.593Z,16.45
2022-08-23T13:33:07.695Z,16.54
2022-08-23T13:35:41.030Z,16.62
2022-08-23T13:38:08.316Z,16.70
2022-08-23T13:40:59.655Z,16.77
2022-08-23T13:43:48.404Z,16.72
2022-08-23T13:46:22.356Z,16.76
2022-08-23T13:49:27.410Z,16.79
2022-08-23T13:52:17.210Z,16.83
2022-08-23T13:54:50.701Z,16.85
2022-08-23T13:57:21.882Z,16.80
2022-08-23T13:59:52.637Z,16.85
2022-08-23T14:02:21.311Z,17.01
2022-08-23T14:04:48.741Z,16.94
2022-08-23T14:07:17.895Z,16.92
2022-08-23T14:09:44.684Z,16.87
2022-08-23T14:12:19.135Z,16.99
2022-08-23T14:15:07.191Z,16.94
2022-08-23T14:18:16.177Z,16.49
2022-08-23T14:21:04.605Z,16.80
2022-08-23T14:23:44.902Z,16.72
2022-08-23T14:26:23.871Z,16.89
2022-08-23T14:29:05.683Z,16.68
2022-08-23T14:31:37.435Z,16.89
2022-08-23T14:40:41.326Z,16.93
2022-08-23T14:43:33.969Z,16.74
2022-08-23T15:46:31.630Z,16.53
2022-08-23T15:49:12.943Z,16.60
2022-08-23T15:51:42.158Z,16.67
2022-08-23T15:54:18.607Z,16.59
2022-08-23T15:56:48.490Z,16.47
2022-08-23T15:59:18.857Z,16.43
2022-08-23T16:01:46.256Z,16.54
2022-08-23T16:04:13.363Z,16.39
2022-08-23T16:06:41.764Z,16.33
2022-08-23T16:09:17.768Z,16.43
2022-08-23T16:11:44.527Z,16.40
2022-08-23T16:14:12.084Z,16.30
2022-08-23T16:16:42.387Z,16.48
2022-08-23T16:19:10.177Z,16.19
2022-08-23T16:21:37.348Z,16.42
2022-08-23T16:24:05.060Z,16.34
2022-08-23T16:26:35.589Z,16.46
2022-08-23T16:29:06.293Z,16.55
2022-08-23T16:31:38.238Z,16.33
2022-08-23T16:34:09.552Z,16.44
2022-08-23T16:36:36.861Z,16.51
2022-08-23T16:39:05.714Z,16.43
2022-08-23T16:41:32.673Z,16.39
2022-08-23T16:43:59.735Z,16.39
2022-08-23T16:46:27.606Z,16.26
2022-08-23T16:48:54.787Z,16.50
2022-08-23T16:51:22.283Z,16.45
2022-08-23T16:54:02.221Z,16.53
2022-08-23T16:56:34.254Z,16.44
2022-08-23T16:59:02.323Z,16.50
2022-08-23T17:01:30.132Z,16.34
2022-08-23T17:03:57.063Z,16.29
2022-08-23T17:06:23.813Z,16.35
2022-08-23T17:08:50.637Z,16.24
2022-08-23T17:11:19.406Z,16.46
2022-08-23T17:13:46.354Z,16.44
2022-08-23T17:16:13.339Z,16.21
2022-08-23T17:18:40.368Z,16.41
2022-08-23T17:21:09.386Z,16.41
2022-08-23T17:23:40.326Z,16.39
2022-08-23T17:26:33.808Z,16.16
2022-08-23T17:29:06.547Z,16.20
2022-08-23T17:31:33.975Z,16.38
2022-08-23T17:34:04.266Z,16.47
2022-08-23T17:37:01.162Z,16.06
2022-08-23T17:39:31.472Z,16.03
2022-08-23T17:41:58.839Z,16.47
2022-08-23T17:44:25.839Z,16.08
2022-08-23T17:46:53.152Z,15.95
2022-08-23T18:04:05.755Z,15.88
2022-08-23T18:06:33.838Z,16.29
2022-08-23T18:09:02.950Z,16.17
2022-08-23T18:11:31.945Z,16.28
2022-08-23T18:13:59.356Z,16.20
2022-08-23T18:16:35.013Z,16.27
2022-08-23T18:19:03.524Z,16.27
2022-08-23T18:21:31.077Z,16.06
2022-08-23T18:24:02.274Z,16.03
2022-08-23T18:26:48.323Z,15.93
2022-08-23T18:29:17.040Z,16.10
2022-08-23T18:31:45.619Z,16.25
2022-08-23T18:58:53.871Z,15.81
2022-08-23T19:04:52.103Z,16.20
2022-08-23T19:18:17.844Z,15.82
2022-08-23T19:20:47.573Z,15.58
2022-08-23T19:23:38.516Z,15.95
2022-08-23T19:27:14.327Z,15.56
2022-08-23T19:29:55.915Z,15.67
2022-08-23T19:32:49.057Z,15.94
2022-08-23T19:35:17.393Z,15.67
2022-08-23T19:54:10.831Z,15.97
2022-08-23T19:56:48.254Z,15.91
2022-08-23T19:59:27.384Z,15.75
2022-08-23T20:01:59.084Z,15.77
2022-08-23T20:04:30.070Z,15.72
2022-08-23T20:06:58.648Z,16.16
2022-08-23T20:09:28.949Z,15.81
2022-08-23T20:11:57.902Z,15.87
2022-08-23T20:14:27.372Z,15.81
2022-08-23T20:16:55.101Z,15.73
2022-08-23T20:19:26.482Z,15.75
2022-08-23T20:22:16.314Z,15.84
2022-08-23T20:24:51.692Z,15.87
2022-08-23T20:27:30.411Z,15.99
2022-08-23T20:30:01.826Z,16.04
2022-08-23T20:32:31.940Z,15.85
2022-08-23T20:34:59.960Z,16.25
2022-08-23T20:37:28.438Z,15.99
2022-08-23T20:39:55.697Z,15.94
2022-08-23T20:42:25.624Z,15.74
2022-08-23T20:44:53.223Z,16.09
2022-08-23T20:47:21.125Z,15.95
2022-08-23T20:49:48.412Z,16.01
2022-08-23T20:52:18.009Z,15.73
2022-08-23T20:54:47.137Z,15.69
2022-08-23T20:57:14.457Z,16.03
2022-08-23T20:59:44.754Z,15.76
2022-08-23T21:02:13.210Z,15.72
2022-08-23T21:04:40.765Z,15.91
2022-08-23T21:07:08.916Z,15.78
2022-08-23T21:09:36.133Z,15.98
2022-08-23T21:12:04.024Z,15.63
2022-08-23T21:14:31.167Z,15.72
2022-08-23T21:16:59.929Z,15.60
2022-08-23T21:19:37.414Z,15.66
2022-08-23T21:22:04.758Z,15.63
2022-08-23T21:24:32.560Z,15.75
2022-08-23T21:27:00.098Z,15.92
2022-08-23T21:29:30.347Z,16.01
2022-08-23T21:31:58.115Z,16.00
2022-08-23T21:34:25.165Z,15.90
2022-08-23T21:36:52.568Z,15.85
2022-08-23T21:39:19.802Z,16.08
2022-08-23T21:41:48.913Z,15.66
2022-08-23T21:44:20.790Z,15.87
2022-08-23T21:46:48.945Z,15.80
2022-08-23T21:49:17.503Z,15.81
2022-08-23T21:51:45.872Z,15.61
2022-08-23T21:54:19.419Z,15.55
2022-08-23T21:56:48.703Z,15.72
2022-08-23T21:59:17.676Z,15.95
2022-08-23T22:01:45.399Z,15.64
2022-08-23T22:04:14.408Z,15.79
2022-08-23T22:06:44.035Z,15.51
2022-08-23T22:09:15.442Z,15.85
2022-08-23T22:11:44.731Z,15.63
2022-08-23T22:14:21.756Z,15.71
2022-08-23T22:16:49.750Z,15.90
2022-08-23T22:19:23.200Z,15.75
2022-08-23T22:21:52.500Z,15.96
2022-08-23T22:24:25.256Z,15.88
2022-08-23T22:26:54.682Z,15.85
2022-08-23T22:29:21.794Z,15.91
2022-08-23T22:31:49.490Z,15.85
2022-08-23T22:34:16.550Z,15.80
2022-08-23T22:36:52.041Z,15.80
2022-08-23T22:39:20.199Z,15.97
2022-08-23T22:41:47.380Z,15.80
2022-08-23T22:44:14.513Z,15.87
2022-08-23T22:46:41.586Z,15.86
2022-08-23T22:49:09.587Z,15.93
2022-08-23T22:51:38.313Z,15.98
2022-08-23T22:54:08.793Z,15.55
2022-08-23T22:56:54.304Z,15.76
2022-08-23T22:59:25.834Z,15.97
2022-08-23T23:03:33.875Z,15.90
2022-08-23T23:06:01.830Z,15.69
2022-08-23T23:08:28.757Z,15.73
2022-08-23T23:11:05.790Z,15.48
2022-08-23T23:13:33.973Z,15.57
2022-08-23T23:16:07.222Z,15.83
2022-08-23T23:18:35.096Z,15.51
2022-08-23T23:21:04.714Z,15.63
2022-08-23T23:23:32.940Z,15.63
2022-08-23T23:26:00.532Z,15.60
2022-08-23T23:28:27.791Z,15.99
2022-08-23T23:30:55.699Z,15.66
2022-08-23T23:33:23.910Z,15.57
2022-08-23T23:35:51.980Z,15.82
2022-08-23T23:38:19.214Z,15.58
2022-08-23T23:40:46.796Z,15.48
2022-08-23T23:43:13.941Z,15.78
2022-08-23T23:45:41.646Z,15.40
2022-08-23T23:48:09.824Z,15.36
2022-08-23T23:50:44.896Z,15.66
2022-08-23T23:53:13.699Z,15.86
2022-08-23T23:55:41.073Z,15.52
2022-08-23T23:58:08.177Z,15.56
